createdAt,value
2022-08-09T00:00:06.312Z,77611.50
2022-08-09T00:02:49.554Z,77615.50
2022-08-09T00:06:19.789Z,77625.47
2022-08-09T00:08:32.059Z,77633.44
2022-08-09T00:11:24.401Z,77637.44
2022-08-09T00:13:57.868Z,77633.44
2022-08-09T00:16:38.530Z,77637.44
2022-08-09T00:19:11.270Z,77637.44
2022-08-09T00:21:56.515Z,77635.44
2022-08-09T00:24:31.838Z,77639.44
2022-08-09T00:27:04.622Z,77647.41
2022-08-09T00:30:10.133Z,77645.41
2022-08-09T00:32:29.959Z,77645.41
2022-08-09T00:35:03.309Z,77653.41
2022-08-09T00:37:35.951Z,77655.38
2022-08-09T00:40:16.362Z,77659.38
2022-08-09T00:44:19.572Z,77667.34
2022-08-09T00:45:50.393Z,77669.34
2022-08-09T00:48:26.826Z,77673.34
2022-08-09T00:51:12.077Z,77681.31
2022-08-09T00:53:46.824Z,77685.31
2022-08-09T00:56:24.783Z,77685.31
2022-08-09T00:58:57.858Z,77687.31
2022-08-09T01:01:44.837Z,77691.28
2022-08-09T01:04:51.441Z,77697.28
2022-08-09T01:08:00.690Z,77695.28
2022-08-09T01:11:29.990Z,77705.25
2022-08-09T01:14:11.862Z,77709.25
2022-08-09T01:16:58.794Z,77719.22
2022-08-09T01:20:02.360Z,77723.19
2022-08-09T01:24:00.910Z,77729.19
2022-08-09T01:26:53.622Z,77743.16
2022-08-09T01:29:40.998Z,77749.13
2022-08-09T01:32:39.062Z,77755.13
2022-08-09T01:35:38.470Z,77757.09
2022-08-09T01:38:20.499Z,77757.09
2022-08-09T01:41:18.636Z,77761.09
2022-08-09T01:44:05.250Z,77763.09
2022-08-09T01:46:43.450Z,77765.09
2022-08-09T01:49:24.360Z,77769.06
2022-08-09T01:52:07.413Z,77769.06
2022-08-09T01:54:50.015Z,77775.06
2022-08-09T01:57:45.874Z,77773.06
2022-08-09T02:00:35.782Z,77785.03
2022-08-09T02:03:11.340Z,77793.00
2022-08-09T02:06:03.769Z,77785.03
2022-08-09T02:08:58.476Z,77787.03
2022-08-09T02:11:40.369Z,77793.00
2022-08-09T02:14:25.686Z,77791.00
2022-08-09T02:17:15.283Z,77789.03
2022-08-09T02:19:52.474Z,77789.03
2022-08-09T02:22:51.006Z,77791.00
2022-08-09T02:25:30.634Z,77789.03
2022-08-09T02:28:17.978Z,77795.00
2022-08-09T02:31:18.577Z,77797.00
2022-08-09T02:34:07.077Z,77806.97
2022-08-09T02:36:53.186Z,77804.97
2022-08-09T02:39:42.749Z,77808.97
2022-08-09T02:42:25.567Z,77820.94
2022-08-09T02:45:13.254Z,77818.94
2022-08-09T02:47:59.044Z,77820.94
2022-08-09T02:50:42.302Z,77832.91
2022-08-09T02:53:34.423Z,77826.91
2022-08-09T02:56:10.637Z,77830.91
2022-08-09T02:58:46.404Z,77838.88
2022-08-09T03:01:29.313Z,77836.88
2022-08-09T03:04:19.748Z,77840.88
2022-08-09T03:06:53.499Z,77844.88
2022-08-09T03:09:33.465Z,77848.84
2022-08-09T03:12:10.966Z,77852.84
2022-08-09T03:14:46.189Z,77858.84
2022-08-09T03:17:26.636Z,77860.81
2022-08-09T03:20:05.360Z,77866.81
2022-08-09T03:22:46.950Z,77874.78
2022-08-09T03:25:57.869Z,77872.78
2022-08-09T03:28:26.687Z,77874.78
2022-08-09T03:31:04.272Z,77880.78
2022-08-09T03:33:54.605Z,77874.78
2022-08-09T03:36:29.419Z,77880.78
2022-08-09T03:39:05.231Z,77888.75
2022-08-09T03:41:44.978Z,77886.75
2022-08-09T03:44:27.724Z,77890.75
2022-08-09T03:47:04.934Z,77894.72
2022-08-09T03:49:42.088Z,77888.75
2022-08-09T03:52:33.269Z,77896.72
2022-08-09T03:55:10.661Z,77900.72
2022-08-09T03:57:57.405Z,77900.72
2022-08-09T04:00:38.366Z,77898.72
2022-08-09T04:03:11.743Z,77904.72
2022-08-09T04:05:52.459Z,77906.69
2022-08-09T04:08:29.017Z,77906.69
2022-08-09T04:11:02.413Z,77914.69
2022-08-09T04:14:37.370Z,77912.69
2022-08-09T04:16:27.540Z,77920.66
2022-08-09T04:19:03.110Z,77918.66
2022-08-09T04:21:45.270Z,77918.66
2022-08-09T04:24:20.324Z,77916.69
2022-08-09T04:26:59.479Z,77918.66
2022-08-09T04:29:32.028Z,77920.66
2022-08-09T04:32:05.479Z,77922.66
2022-08-09T04:34:38.039Z,77922.66
2022-08-09T04:37:20.457Z,77930.63
2022-08-09T04:39:52.984Z,77924.66
2022-08-09T04:42:31.593Z,77924.66
2022-08-09T04:45:08.996Z,77924.66
2022-08-09T04:47:45.024Z,77922.66
2022-08-09T04:50:37.619Z,77920.66
2022-08-09T04:53:13.488Z,77918.66
2022-08-09T04:55:58.952Z,77914.69
2022-08-09T04:58:33.877Z,77912.69
2022-08-09T05:01:16.304Z,77906.69
2022-08-09T05:03:58.654Z,77904.72
2022-08-09T05:06:35.803Z,77898.72
2022-08-09T05:09:08.720Z,77898.72
2022-08-09T05:11:45.074Z,77890.75
2022-08-09T05:14:18.247Z,77882.75
2022-08-09T05:16:59.193Z,77876.78
2022-08-09T05:19:46.012Z,77880.78
2022-08-09T05:22:33.555Z,77864.81
2022-08-09T05:25:09.726Z,77854.84
2022-08-09T05:27:45.533Z,77850.84
2022-08-09T05:30:20.666Z,77840.88
2022-08-09T05:32:54.003Z,77836.88
2022-08-09T05:35:26.806Z,77824.94
2022-08-09T05:38:00.710Z,77820.94
2022-08-09T05:40:34.244Z,77812.97
2022-08-09T05:43:07.463Z,77808.97
2022-08-09T05:45:53.000Z,77802.97
2022-08-09T05:48:33.259Z,77801.00
2022-08-09T05:51:16.623Z,77791.00
2022-08-09T05:53:59.361Z,77785.03
2022-08-09T05:56:33.186Z,77773.06
2022-08-09T05:59:05.765Z,77769.06
2022-08-09T06:01:43.110Z,77759.09
2022-08-09T06:04:15.777Z,77753.13
2022-08-09T06:06:56.132Z,77745.13
2022-08-09T06:09:55.139Z,77735.16
2022-08-09T06:12:22.068Z,77715.22
2022-08-09T06:15:01.541Z,77713.22
2022-08-09T06:17:40.117Z,77701.25
2022-08-09T06:20:13.363Z,77697.28
2022-08-09T06:22:50.958Z,77683.31
2022-08-09T06:25:24.417Z,77675.34
2022-08-09T06:27:56.893Z,77661.38
2022-08-09T06:30:29.433Z,77647.41
2022-08-09T06:33:30.340Z,77645.41
2022-08-09T06:35:57.656Z,77627.47
2022-08-09T06:38:32.293Z,77625.47
2022-08-09T06:41:18.827Z,77607.53
2022-08-09T06:43:53.131Z,77585.59
2022-08-09T06:46:40.017Z,77577.59
2022-08-09T06:49:16.171Z,77561.66
2022-08-09T06:52:01.778Z,77541.69
2022-08-09T06:54:34.561Z,77533.72
2022-08-09T06:57:08.362Z,77523.75
2022-08-09T07:00:53.776Z,77515.78
2022-08-09T07:02:34.597Z,77493.84
2022-08-09T07:05:08.250Z,77495.84
2022-08-09T07:08:00.986Z,77481.88
2022-08-09T07:10:33.697Z,77475.88
2022-08-09T07:13:27.407Z,77459.94
2022-08-09T07:16:41.446Z,77443.97
2022-08-09T07:18:52.110Z,77430.00
2022-08-09T07:21:24.613Z,77410.06
2022-08-09T07:24:05.099Z,77398.09
2022-08-09T07:26:37.638Z,77388.13
2022-08-09T07:29:13.381Z,77382.16
2022-08-09T07:31:48.189Z,77370.19
2022-08-09T07:34:21.661Z,77358.22
2022-08-09T07:36:58.278Z,77344.25
2022-08-09T07:39:42.379Z,77328.31
2022-08-09T07:42:15.187Z,77314.34
2022-08-09T07:44:51.624Z,77296.41
2022-08-09T07:47:26.113Z,77278.44
2022-08-09T07:50:07.959Z,77270.47
2022-08-09T07:52:43.077Z,77266.47
2022-08-09T07:55:17.305Z,77252.53
2022-08-09T07:57:52.404Z,77248.53
2022-08-09T08:00:36.348Z,77222.59
2022-08-09T08:03:09.826Z,77220.63
2022-08-09T08:05:53.857Z,77206.66
2022-08-09T08:09:00.347Z,77206.66
2022-08-09T08:12:10.671Z,77186.72
2022-08-09T08:14:16.124Z,77176.75
2022-08-09T08:17:00.493Z,77164.78
2022-08-09T08:19:40.530Z,77154.81
2022-08-09T08:22:17.116Z,77134.84
2022-08-09T08:24:57.418Z,77132.88
2022-08-09T08:27:40.298Z,77106.94
2022-08-09T08:30:14.132Z,77102.94
2022-08-09T08:32:52.483Z,77087.00
2022-08-09T08:35:28.222Z,77067.06
2022-08-09T08:38:11.490Z,77063.06
2022-08-09T08:40:44.671Z,77059.06
2022-08-09T08:43:24.166Z,77041.13
2022-08-09T08:46:32.687Z,77041.13
2022-08-09T08:48:59.447Z,77013.22
2022-08-09T08:51:38.868Z,77021.19
2022-08-09T08:54:20.176Z,77019.19
2022-08-09T08:56:54.435Z,77001.25
2022-08-09T08:59:28.031Z,76991.28
2022-08-09T09:02:31.230Z,76979.31
2022-08-09T09:05:06.014Z,76967.34
2022-08-09T09:07:48.909Z,76959.38
2022-08-09T09:10:26.819Z,76945.41
2022-08-09T09:13:00.259Z,76939.44
2022-08-09T09:15:42.234Z,76923.47
2022-08-09T09:18:21.868Z,76929.47
2022-08-09T09:20:57.896Z,76899.53
2022-08-09T09:23:49.571Z,76887.59
2022-08-09T09:26:26.014Z,76891.56
2022-08-09T09:29:03.912Z,76883.59
2022-08-09T09:32:03.448Z,76899.53
2022-08-09T09:34:37.336Z,76883.59
2022-08-09T09:37:13.057Z,76889.56
2022-08-09T09:39:55.574Z,76867.63
2022-08-09T09:42:31.330Z,76849.69
2022-08-09T09:45:08.739Z,76837.72
2022-08-09T09:47:48.101Z,76807.81
2022-08-09T09:50:49.808Z,76813.81
2022-08-09T09:53:57.846Z,76801.84
2022-08-09T09:56:33.578Z,76811.81
2022-08-09T09:59:08.489Z,76807.81
2022-08-09T10:01:47.377Z,76805.81
2022-08-09T10:04:22.593Z,76789.88
2022-08-09T10:07:09.684Z,76763.94
2022-08-09T10:09:49.173Z,76767.94
2022-08-09T10:12:43.566Z,76757.97
2022-08-09T10:15:17.681Z,76751.97
2022-08-09T10:18:12.713Z,76748.00
2022-08-09T10:20:45.617Z,76744.00
2022-08-09T10:23:22.558Z,76720.06
2022-08-09T10:26:06.955Z,76726.06
2022-08-09T10:28:48.715Z,76736.03
2022-08-09T10:32:37.586Z,76740.03
2022-08-09T10:34:35.835Z,76726.06
2022-08-09T10:37:09.774Z,76704.13
2022-08-09T10:39:48.940Z,76676.22
2022-08-09T10:42:26.992Z,76648.28
2022-08-09T10:45:11.980Z,76660.25
2022-08-09T10:48:29.773Z,76644.31
2022-08-09T10:51:40.791Z,76616.38
2022-08-09T10:54:14.645Z,76618.38
2022-08-09T10:56:47.172Z,76620.38
2022-08-09T10:59:30.972Z,76630.34
2022-08-09T11:03:14.819Z,76622.38
2022-08-09T11:05:25.270Z,76596.44
2022-08-09T11:08:47.757Z,76588.47
2022-08-09T11:11:23.173Z,76576.50
2022-08-09T11:14:38.079Z,76550.59
2022-08-09T11:17:13.924Z,76548.59
2022-08-09T11:20:10.531Z,76522.66
2022-08-09T11:22:56.840Z,76528.66
2022-08-09T11:25:47.805Z,76538.63
2022-08-09T11:28:38.680Z,76520.69
2022-08-09T11:31:49.080Z,76520.69
2022-08-09T11:34:48.383Z,76528.66
2022-08-09T11:37:28.096Z,76548.59
2022-08-09T11:40:32.121Z,76526.66
2022-08-09T11:43:07.190Z,76508.72
2022-08-09T11:45:59.495Z,76530.66
2022-08-09T11:48:47.800Z,76508.72
2022-08-09T11:52:38.696Z,76496.75
2022-08-09T11:54:28.717Z,76506.72
2022-08-09T11:57:47.383Z,76498.75
2022-08-09T12:00:33.911Z,76474.81
2022-08-09T12:03:56.067Z,76468.84
2022-08-09T12:06:26.418Z,76450.91
2022-08-09T12:09:19.616Z,76438.94
2022-08-09T12:12:04.096Z,76432.94
2022-08-09T12:15:03.846Z,76430.94
2022-08-09T12:17:42.367Z,76405.03
2022-08-09T12:20:22.804Z,76417.00
2022-08-09T12:23:00.144Z,76385.09
2022-08-09T12:25:37.087Z,76377.13
2022-08-09T12:28:58.428Z,76365.16
2022-08-09T12:31:57.974Z,76369.16
2022-08-09T12:34:36.728Z,76357.19
2022-08-09T12:37:23.627Z,76377.13
2022-08-09T12:40:10.993Z,76369.16
2022-08-09T12:42:44.434Z,76343.22
2022-08-09T12:45:33.854Z,76333.25
2022-08-09T12:48:31.040Z,76319.31
2022-08-09T12:51:04.519Z,76299.34
2022-08-09T12:53:44.954Z,76297.38
2022-08-09T12:56:37.101Z,76273.44
2022-08-09T12:59:20.561Z,76287.41
2022-08-09T13:02:05.234Z,76311.31
2022-08-09T13:04:59.097Z,76297.38
2022-08-09T13:07:50.613Z,76293.38
2022-08-09T13:10:24.171Z,76273.44
2022-08-09T13:13:11.288Z,76305.34
2022-08-09T13:16:06.703Z,76303.34
2022-08-09T13:18:46.998Z,76283.41
2022-08-09T13:22:35.953Z,76281.41
2022-08-09T13:24:54.035Z,76305.34
2022-08-09T13:27:30.603Z,76257.50
2022-08-09T13:30:51.315Z,76225.59
2022-08-09T13:33:24.825Z,76181.72
2022-08-09T13:36:24.187Z,76191.69
2022-08-09T13:41:17.342Z,76167.78
2022-08-09T13:42:14.250Z,76159.78
2022-08-09T13:44:48.818Z,76125.91
2022-08-09T13:47:32.974Z,76141.84
2022-08-09T13:50:30.944Z,76153.81
2022-08-09T13:53:03.962Z,76151.81
2022-08-09T13:55:41.542Z,76157.81
2022-08-09T13:58:17.404Z,76173.75
2022-08-09T14:00:52.609Z,76153.81
2022-08-09T14:04:02.403Z,76139.84
2022-08-09T14:06:26.512Z,76099.97
2022-08-09T14:09:02.038Z,76099.97
2022-08-09T14:11:46.995Z,76070.06
2022-08-09T14:14:26.916Z,76098.00
2022-08-09T14:17:00.135Z,76101.97
2022-08-09T14:19:34.117Z,76082.03
2022-08-09T14:22:07.866Z,76084.03
2022-08-09T14:24:53.302Z,76096.00
2022-08-09T14:27:26.977Z,76072.06
2022-08-09T14:30:34.043Z,76090.00
2022-08-09T14:32:52.172Z,76046.16
2022-08-09T14:35:25.667Z,76058.13
2022-08-09T14:38:18.234Z,76042.16
2022-08-09T14:41:01.203Z,76036.19
2022-08-09T14:43:47.634Z,76022.22
2022-08-09T14:46:55.437Z,76004.28
2022-08-09T14:49:18.609Z,75962.41
2022-08-09T14:51:58.740Z,75946.47
2022-08-09T14:54:34.193Z,75922.53
2022-08-09T14:57:07.896Z,75932.50
2022-08-09T14:59:41.279Z,75930.53
2022-08-09T15:02:17.492Z,75944.47
2022-08-09T15:04:52.963Z,75952.44
2022-08-09T15:07:25.478Z,75976.38
2022-08-09T15:10:04.577Z,75926.53
2022-08-09T15:12:44.918Z,75926.53
2022-08-09T15:15:17.809Z,75914.56
2022-08-09T15:17:54.837Z,75918.56
2022-08-09T15:21:58.054Z,75936.50
2022-08-09T15:24:02.659Z,75954.44
2022-08-09T15:26:19.333Z,75958.44
2022-08-09T15:29:05.184Z,75934.50
2022-08-09T15:31:40.742Z,75950.47
2022-08-09T15:34:32.769Z,75964.41
2022-08-09T15:37:37.542Z,75950.47
2022-08-09T15:40:22.871Z,75928.53
2022-08-09T15:42:57.945Z,75920.56
2022-08-09T15:45:30.978Z,75938.50
2022-08-09T15:48:29.353Z,76014.25
2022-08-09T15:51:30.267Z,76064.09
2022-08-09T15:54:03.155Z,76064.09
2022-08-09T15:56:40.719Z,76038.19
2022-08-09T15:59:13.373Z,76002.28
2022-08-09T16:01:45.974Z,75968.41
2022-08-09T16:04:18.542Z,75932.50
2022-08-09T16:06:56.203Z,75890.66
2022-08-09T16:09:51.517Z,75916.56
2022-08-09T16:12:21.942Z,75876.69
2022-08-09T16:14:58.954Z,75870.72
2022-08-09T16:17:33.018Z,75882.66
2022-08-09T16:20:09.356Z,75820.88
2022-08-09T16:22:48.797Z,75808.91
2022-08-09T16:25:37.050Z,75763.06
2022-08-09T16:28:13.583Z,75761.06
2022-08-09T16:30:58.785Z,75731.16
2022-08-09T16:33:35.072Z,75751.09
2022-08-09T16:36:16.308Z,75751.09
2022-08-09T16:38:53.454Z,75775.03
2022-08-09T16:42:02.857Z,75773.03
2022-08-09T16:44:18.941Z,75725.19
2022-08-09T16:46:55.182Z,75715.22
2022-08-09T16:50:32.578Z,75717.22
2022-08-09T16:52:20.438Z,75701.25
2022-08-09T16:54:53.631Z,75699.25
2022-08-09T16:57:26.239Z,75773.03
2022-08-09T17:00:18.949Z,75727.19
2022-08-09T17:02:51.821Z,75683.31
2022-08-09T17:05:24.715Z,75643.44
2022-08-09T17:08:46.593Z,75631.47
2022-08-09T17:11:09.808Z,75583.63
2022-08-09T17:13:45.053Z,75617.53
2022-08-09T17:16:17.881Z,75583.63
2022-08-09T17:18:50.407Z,75551.75
2022-08-09T17:21:22.910Z,75545.75
2022-08-09T17:24:20.570Z,75611.56
2022-08-09T17:26:53.685Z,75607.56
2022-08-09T17:29:31.565Z,75601.59
2022-08-09T17:32:15.787Z,75555.72
2022-08-09T17:35:01.081Z,75619.53
2022-08-09T17:38:11.943Z,75591.63
2022-08-09T17:40:30.251Z,75639.47
2022-08-09T17:43:32.390Z,75663.38
2022-08-09T17:46:05.724Z,75653.41
2022-08-09T17:48:46.750Z,75661.38
2022-08-09T17:51:25.357Z,75663.38
2022-08-09T17:54:02.793Z,75695.28
2022-08-09T17:56:40.668Z,75655.41
2022-08-09T17:59:16.966Z,75619.53
2022-08-09T18:02:08.080Z,75671.34
2022-08-09T18:04:47.350Z,75667.38
2022-08-09T18:07:23.277Z,75687.31
2022-08-09T18:10:04.487Z,75755.09
2022-08-09T18:12:40.878Z,75743.13
2022-08-09T18:16:08.121Z,75763.06
2022-08-09T18:18:25.831Z,75723.19
2022-08-09T18:21:19.254Z,75751.09
2022-08-09T18:24:10.554Z,75753.09
2022-08-09T18:26:46.776Z,75794.97
2022-08-09T18:30:34.564Z,75818.88
2022-08-09T18:32:13.400Z,75860.75
2022-08-09T18:34:46.019Z,75854.75
2022-08-09T18:37:48.738Z,75838.81
2022-08-09T18:40:16.432Z,75922.53
2022-08-09T18:42:51.211Z,75954.44
2022-08-09T18:46:48.617Z,75978.38
2022-08-09T18:48:17.722Z,76044.16
2022-08-09T18:50:50.402Z,76099.97
2022-08-09T18:53:31.481Z,76191.69
2022-08-09T18:56:27.133Z,76249.50
2022-08-09T18:59:01.880Z,76301.34
2022-08-09T19:01:43.500Z,76353.19
2022-08-09T19:04:34.797Z,76387.09
2022-08-09T19:07:07.872Z,76430.94
2022-08-09T19:10:15.504Z,76462.84
2022-08-09T19:12:34.101Z,76488.78
2022-08-09T19:15:10.413Z,76518.69
2022-08-09T19:17:56.172Z,76540.63
2022-08-09T19:20:38.851Z,76564.53
2022-08-09T19:23:16.678Z,76584.50
2022-08-09T19:26:02.312Z,76610.41
2022-08-09T19:28:39.480Z,76620.38
2022-08-09T19:31:15.505Z,76648.28
2022-08-09T19:33:49.462Z,76668.22
2022-08-09T19:36:31.042Z,76680.19
2022-08-09T19:39:05.946Z,76702.13
2022-08-09T19:41:42.318Z,76720.06
2022-08-09T19:44:17.778Z,76728.06
2022-08-09T19:46:53.305Z,76736.03
2022-08-09T19:50:05.344Z,76746.00
2022-08-09T19:52:20.123Z,76765.94
2022-08-09T19:54:55.219Z,76763.94
2022-08-09T19:57:27.811Z,76773.91
2022-08-09T20:00:06.696Z,76779.91
2022-08-09T20:04:24.114Z,76795.84
2022-08-09T20:05:41.331Z,76805.81
2022-08-09T20:08:33.198Z,76819.78
2022-08-09T20:11:07.344Z,76819.78
2022-08-09T20:13:39.954Z,76827.75
2022-08-09T20:16:33.947Z,76833.75
2022-08-09T20:19:42.209Z,76835.72
2022-08-09T20:22:00.028Z,76839.72
2022-08-09T20:24:35.500Z,76841.72
2022-08-09T20:27:08.832Z,76849.69
2022-08-09T20:29:41.761Z,76859.66
2022-08-09T20:32:29.867Z,76867.63
2022-08-09T20:35:06.620Z,76875.63
2022-08-09T20:38:23.422Z,76881.59
2022-08-09T20:40:31.986Z,76897.56
2022-08-09T20:43:18.876Z,76899.53
2022-08-09T20:46:00.235Z,76903.53
2022-08-09T20:48:47.786Z,76911.50
2022-08-09T20:51:27.821Z,76923.47
2022-08-09T20:54:01.048Z,76929.47
2022-08-09T20:56:36.385Z,76943.41
2022-08-09T20:59:09.909Z,76953.38
2022-08-09T21:01:49.842Z,76963.34
2022-08-09T21:05:51.069Z,76969.34
2022-08-09T21:07:17.063Z,76979.31
2022-08-09T21:09:56.257Z,76987.28
2022-08-09T21:12:32.187Z,76991.28
2022-08-09T21:15:06.205Z,76995.25
2022-08-09T21:18:11.395Z,77011.22
2022-08-09T21:20:39.174Z,77007.22
2022-08-09T21:23:13.093Z,77017.19
2022-08-09T21:25:56.542Z,77021.19
2022-08-09T21:28:36.118Z,77021.19
2022-08-09T21:31:17.959Z,77027.16
2022-08-09T21:33:53.256Z,77029.16
2022-08-09T21:36:30.589Z,77043.13
2022-08-09T21:39:05.694Z,77053.09
2022-08-09T21:42:05.773Z,77055.09
2022-08-09T21:44:33.507Z,77063.06
2022-08-09T21:47:10.210Z,77077.03
2022-08-09T21:49:48.112Z,77089.00
2022-08-09T21:52:21.393Z,77094.97
2022-08-09T21:55:03.885Z,77098.97
2022-08-09T21:57:59.057Z,77106.94
2022-08-09T22:00:33.744Z,77122.91
2022-08-09T22:03:19.742Z,77126.88
2022-08-09T22:05:58.276Z,77134.84
2022-08-09T22:08:30.810Z,77136.84
2022-08-09T22:12:09.085Z,77138.84
2022-08-09T22:13:55.919Z,77142.84
2022-08-09T22:16:36.806Z,77150.81
2022-08-09T22:19:58.023Z,77156.78
2022-08-09T22:22:02.476Z,77162.78
2022-08-09T22:24:34.970Z,77170.75
2022-08-09T22:27:10.549Z,77170.75
2022-08-09T22:29:48.778Z,77170.75
2022-08-09T22:32:29.522Z,77182.72
2022-08-09T22:35:06.733Z,77186.72
2022-08-09T22:38:06.571Z,77204.66
2022-08-09T22:40:40.026Z,77202.66
2022-08-09T22:44:03.527Z,77218.63
2022-08-09T22:48:12.675Z,77232.56
2022-08-09T22:49:10.103Z,77240.56
2022-08-09T22:51:49.271Z,77250.53
2022-08-09T22:54:22.286Z,77258.50
2022-08-09T22:56:58.540Z,77266.47
2022-08-09T22:59:55.180Z,77272.47
2022-08-09T23:02:24.914Z,77278.44
2022-08-09T23:04:57.493Z,77280.44
2022-08-09T23:08:22.797Z,77286.41
2022-08-09T23:10:43.808Z,77296.41
2022-08-09T23:13:16.584Z,77298.38
2022-08-09T23:16:02.909Z,77306.38
2022-08-09T23:18:36.230Z,77322.31
2022-08-09T23:21:10.473Z,77324.31
2022-08-09T23:23:43.497Z,77330.28
2022-08-09T23:26:38.009Z,77332.28
2022-08-09T23:29:13.886Z,77336.28
2022-08-09T23:31:48.394Z,77344.25
2022-08-09T23:34:23.889Z,77344.25
2022-08-09T23:36:56.441Z,77350.25
2022-08-09T23:39:29.227Z,77350.25
2022-08-09T23:42:01.861Z,77358.22
2022-08-09T23:44:34.378Z,77360.22
2022-08-09T23:47:07.079Z,77370.19
2022-08-09T23:49:39.691Z,77376.16
2022-08-09T23:52:12.304Z,77386.13
2022-08-09T23:54:45.411Z,77390.13
2022-08-09T23:57:18.596Z,77390.13
